sensor_id;sensor_type;location;lat;lon;timestamp;pressure;altitude;pressure_sealevel;temperature;humidity
12879;BME280;20617;49.476;10.986;2023-01-31T00:00:55;98881.75;;;2.89;100.00
12879;BME280;20617;49.476;10.986;2023-01-31T00:03:00;98874.88;;;2.87;100.00
12879;BME280;20617;49.476;10.986;2023-01-31T00:05:05;98874.88;;;2.84;100.00
12879;BME280;20617;49.476;10.986;2023-01-31T00:07:10;98874.91;;;2.78;100.00
12879;BME280;20617;49.476;10.986;2023-01-31T00:09:16;98886.88;;;2.79;100.00
12879;BME280;20617;49.476;10.986;2023-01-31T00:11:23;98881.78;;;2.71;100.00
12879;BME280;20617;49.476;10.986;2023-01-31T00:13:28;98880.91;;;2.75;100.00
12879;BME280;20617;49.476;10.986;2023-01-31T00:15:33;98877.47;;;2.73;100.00
12879;BME280;20617;49.476;10.986;2023-01-31T00:17:42;98875.75;;;2.69;100.00
12879;BME280;20617;49.476;10.986;2023-01-31T00:19:47;98886.91;;;2.74;100.00
12879;BME280;20617;49.476;10.986;2023-01-31T00:21:52;98891.19;;;2.72;100.00
12879;BME280;20617;49.476;10.986;2023-01-31T00:23:58;98897.19;;;2.74;100.00
12879;BME280;20617;49.476;10.986;2023-01-31T00:26:11;98893.75;;;2.69;100.00
12879;BME280;20617;49.476;10.986;2023-01-31T00:28:16;98902.31;;;2.69;100.00
12879;BME280;20617;49.476;10.986;2023-01-31T00:30:23;98898.03;;;2.70;100.00
12879;BME280;20617;49.476;10.986;2023-01-31T00:32:28;98904.06;;;2.77;100.00
12879;BME280;20617;49.476;10.986;2023-01-31T00:34:35;98905.75;;;2.75;100.00
12879;BME280;20617;49.476;10.986;2023-01-31T00:36:40;98904.91;;;2.71;100.00
12879;BME280;20617;49.476;10.986;2023-01-31T00:38:47;98907.44;;;2.85;100.00
12879;BME280;20617;49.476;10.986;2023-01-31T00:40:53;98904.88;;;2.86;100.00
12879;BME280;20617;49.476;10.986;2023-01-31T00:42:58;98906.59;;;2.81;100.00
12879;BME280;20617;49.476;10.986;2023-01-31T00:45:04;98910.03;;;2.85;100.00
12879;BME280;20617;49.476;10.986;2023-01-31T00:47:09;98904.91;;;2.80;100.00
12879;BME280;20617;49.476;10.986;2023-01-31T00:49:14;98914.31;;;2.80;100.00
12879;BME280;20617;49.476;10.986;2023-01-31T00:51:23;98907.44;;;2.79;100.00
12879;BME280;20617;49.476;10.986;2023-01-31T00:53:28;98909.16;;;2.81;100.00
12879;BME280;20617;49.476;10.986;2023-01-31T00:55:33;98909.16;;;2.92;100.00
12879;BME280;20617;49.476;10.986;2023-01-31T00:57:38;98913.44;;;2.93;100.00
12879;BME280;20617;49.476;10.986;2023-01-31T00:59:43;98926.31;;;2.90;100.00
12879;BME280;20617;49.476;10.986;2023-01-31T01:01:48;98926.31;;;2.93;100.00
12879;BME280;20617;49.476;10.986;2023-01-31T01:03:54;98922.03;;;2.90;100.00
12879;BME280;20617;49.476;10.986;2023-01-31T01:05:59;98923.72;;;2.93;100.00
12879;BME280;20617;49.476;10.986;2023-01-31T01:08:07;98921.16;;;2.96;100.00
12879;BME280;20617;49.476;10.986;2023-01-31T01:10:12;98922.00;;;2.93;100.00
12879;BME280;20617;49.476;10.986;2023-01-31T01:12:17;98921.16;;;2.87;100.00
12879;BME280;20617;49.476;10.986;2023-01-31T01:14:22;98918.59;;;2.87;100.00
12879;BME280;20617;49.476;10.986;2023-01-31T01:16:31;98916.03;;;2.90;100.00
12879;BME280;20617;49.476;10.986;2023-01-31T01:18:37;98917.75;;;2.83;100.00
12879;BME280;20617;49.476;10.986;2023-01-31T01:20:42;98916.03;;;2.84;100.00
12879;BME280;20617;49.476;10.986;2023-01-31T01:22:47;98924.59;;;2.78;100.00
12879;BME280;20617;49.476;10.986;2023-01-31T01:24:55;98925.44;;;2.85;100.00
12879;BME280;20617;49.476;10.986;2023-01-31T01:27:00;98924.59;;;2.87;100.00
12879;BME280;20617;49.476;10.986;2023-01-31T01:29:06;98928.00;;;2.88;100.00
12879;BME280;20617;49.476;10.986;2023-01-31T01:31:12;98932.31;;;2.90;100.00
12879;BME280;20617;49.476;10.986;2023-01-31T01:33:18;98923.75;;;2.85;100.00
12879;BME280;20617;49.476;10.986;2023-01-31T01:35:23;98932.31;;;2.90;100.00
12879;BME280;20617;49.476;10.986;2023-01-31T01:37:29;98926.31;;;2.90;100.00
12879;BME280;20617;49.476;10.986;2023-01-31T01:39:34;98931.47;;;2.88;100.00
12879;BME280;20617;49.476;10.986;2023-01-31T01:41:42;98928.88;;;2.90;100.00
12879;BME280;20617;49.476;10.986;2023-01-31T01:43:49;98925.44;;;2.85;100.00
12879;BME280;20617;49.476;10.986;2023-01-31T01:45:54;98934.91;;;2.86;100.00
12879;BME280;20617;49.476;10.986;2023-01-31T01:48:03;98932.31;;;2.83;100.00
12879;BME280;20617;49.476;10.986;2023-01-31T01:50:12;98916.91;;;2.77;100.00
12879;BME280;20617;49.476;10.986;2023-01-31T01:52:20;98927.19;;;2.75;100.00
12879;BME280;20617;49.476;10.986;2023-01-31T01:54:31;98927.19;;;2.74;100.00
12879;BME280;20617;49.476;10.986;2023-01-31T01:56:39;98928.88;;;2.61;100.00
12879;BME280;20617;49.476;10.986;2023-01-31T01:58:52;98924.59;;;2.61;100.00
12879;BME280;20617;49.476;10.986;2023-01-31T02:00:58;98933.16;;;2.56;100.00
12879;BME280;20617;49.476;10.986;2023-01-31T02:03:06;98935.72;;;2.49;100.00
12879;BME280;20617;49.476;10.986;2023-01-31T02:05:15;98940.00;;;2.52;100.00
12879;BME280;20617;49.476;10.986;2023-01-31T02:07:21;98944.28;;;2.52;100.00
12879;BME280;20617;49.476;10.986;2023-01-31T02:09:33;98958.84;;;2.49;100.00
12879;BME280;20617;49.476;10.986;2023-01-31T02:11:39;98949.44;;;2.58;100.00
12879;BME280;20617;49.476;10.986;2023-01-31T02:13:48;98948.59;;;2.60;100.00
12879;BME280;20617;49.476;10.986;2023-01-31T02:15:54;98951.16;;;2.69;100.00
12879;BME280;20617;49.476;10.986;2023-01-31T02:18:00;98955.44;;;2.72;100.00
12879;BME280;20617;49.476;10.986;2023-01-31T02:20:25;98960.59;;;2.77;100.00
12879;BME280;20617;49.476;10.986;2023-01-31T02:22:39;98958.03;;;2.78;100.00
12879;BME280;20617;49.476;10.986;2023-01-31T02:25:22;98963.16;;;2.70;100.00
12879;BME280;20617;49.476;10.986;2023-01-31T02:30:52;98972.59;;;2.79;100.00
12879;BME280;20617;49.476;10.986;2023-01-31T02:33:12;98966.59;;;2.79;100.00
12879;BME280;20617;49.476;10.986;2023-01-31T02:35:32;98959.75;;;2.81;100.00
12879;BME280;20617;49.476;10.986;2023-01-31T02:37:50;98966.59;;;2.80;100.00
12879;BME280;20617;49.476;10.986;2023-01-31T02:40:07;98957.16;;;2.79;100.00
12879;BME280;20617;49.476;10.986;2023-01-31T02:42:23;98958.88;;;2.74;100.00
12879;BME280;20617;49.476;10.986;2023-01-31T02:44:37;98969.16;;;2.66;100.00
12879;BME280;20617;49.476;10.986;2023-01-31T02:47:06;98970.03;;;2.62;100.00
12879;BME280;20617;49.476;10.986;2023-01-31T02:49:22;98983.72;;;2.61;100.00
12879;BME280;20617;49.476;10.986;2023-01-31T02:51:51;98983.72;;;2.61;100.00
12879;BME280;20617;49.476;10.986;2023-01-31T02:54:14;98988.00;;;2.58;100.00
12879;BME280;20617;49.476;10.986;2023-01-31T02:56:25;98994.84;;;2.54;100.00
12879;BME280;20617;49.476;10.986;2023-01-31T02:58:31;98993.97;;;2.46;100.00
12879;BME280;20617;49.476;10.986;2023-01-31T03:00:40;98997.38;;;2.46;100.00
12879;BME280;20617;49.476;10.986;2023-01-31T03:02:46;99002.53;;;2.42;100.00
12879;BME280;20617;49.476;10.986;2023-01-31T03:04:54;98988.81;;;2.43;100.00
12879;BME280;20617;49.476;10.986;2023-01-31T03:07:03;98993.09;;;2.44;100.00
12879;BME280;20617;49.476;10.986;2023-01-31T03:09:16;98997.38;;;2.46;100.00
12879;BME280;20617;49.476;10.986;2023-01-31T03:11:30;98988.84;;;2.44;100.00
12879;BME280;20617;49.476;10.986;2023-01-31T03:13:46;98990.53;;;2.44;100.00
12879;BME280;20617;49.476;10.986;2023-01-31T03:16:06;98992.25;;;2.39;100.00
12879;BME280;20617;49.476;10.986;2023-01-31T03:18:29;98991.38;;;2.35;100.00
12879;BME280;20617;49.476;10.986;2023-01-31T03:20:44;98990.50;;;2.38;100.00
12879;BME280;20617;49.476;10.986;2023-01-31T03:22:54;98993.91;;;2.29;100.00
12879;BME280;20617;49.476;10.986;2023-01-31T03:25:01;98994.78;;;2.28;100.00
12879;BME280;20617;49.476;10.986;2023-01-31T03:27:07;99006.75;;;2.24;100.00
12879;BME280;20617;49.476;10.986;2023-01-31T03:29:15;99005.88;;;2.24;100.00
12879;BME280;20617;49.476;10.986;2023-01-31T03:31:24;99007.59;;;2.23;100.00
12879;BME280;20617;49.476;10.986;2023-01-31T03:33:33;99012.75;;;2.25;100.00
12879;BME280;20617;49.476;10.986;2023-01-31T03:35:45;99012.75;;;2.19;100.00
12879;BME280;20617;49.476;10.986;2023-01-31T03:37:58;99017.03;;;2.23;100.00
12879;BME280;20617;49.476;10.986;2023-01-31T03:40:09;99020.44;;;2.26;100.00
12879;BME280;20617;49.476;10.986;2023-01-31T03:42:21;99025.59;;;2.30;100.00
12879;BME280;20617;49.476;10.986;2023-01-31T03:44:35;99032.50;;;2.37;100.00
12879;BME280;20617;49.476;10.986;2023-01-31T03:46:45;99035.06;;;2.34;100.00
12879;BME280;20617;49.476;10.986;2023-01-31T03:48:54;99035.91;;;2.37;100.00
12879;BME280;20617;49.476;10.986;2023-01-31T03:51:05;99046.19;;;2.36;100.00
12879;BME280;20617;49.476;10.986;2023-01-31T03:53:16;99044.47;;;2.36;100.00
12879;BME280;20617;49.476;10.986;2023-01-31T03:55:28;99039.34;;;2.38;100.00
12879;BME280;20617;49.476;10.986;2023-01-31T03:57:36;99045.34;;;2.41;100.00
12879;BME280;20617;49.476;10.986;2023-01-31T03:59:44;99045.38;;;2.44;100.00
12879;BME280;20617;49.476;10.986;2023-01-31T04:01:56;99034.25;;;2.48;100.00
12879;BME280;20617;49.476;10.986;2023-01-31T04:04:07;99040.22;;;2.49;100.00
12879;BME280;20617;49.476;10.986;2023-01-31T04:06:15;99044.50;;;2.45;100.00
12879;BME280;20617;49.476;10.986;2023-01-31T04:08:20;99047.91;;;2.43;100.00
12879;BME280;20617;49.476;10.986;2023-01-31T04:10:34;99054.78;;;2.39;100.00
12879;BME280;20617;49.476;10.986;2023-01-31T04:12:40;99061.66;;;2.45;100.00
12879;BME280;20617;49.476;10.986;2023-01-31T04:14:45;99055.63;;;2.46;100.00
12879;BME280;20617;49.476;10.986;2023-01-31T04:16:50;99055.66;;;2.51;100.00
12879;BME280;20617;49.476;10.986;2023-01-31T04:18:54;99067.66;;;2.55;100.00
12879;BME280;20617;49.476;10.986;2023-01-31T04:20:59;99066.78;;;2.48;100.00
12879;BME280;20617;49.476;10.986;2023-01-31T04:23:07;99064.25;;;2.54;100.00
12879;BME280;20617;49.476;10.986;2023-01-31T04:25:12;99066.81;;;2.54;100.00
12879;BME280;20617;49.476;10.986;2023-01-31T04:27:17;99071.09;;;2.55;100.00
12879;BME280;20617;49.476;10.986;2023-01-31T04:29:22;99082.22;;;2.54;100.00
12879;BME280;20617;49.476;10.986;2023-01-31T04:31:27;99083.06;;;2.55;100.00
12879;BME280;20617;49.476;10.986;2023-01-31T04:33:32;99080.53;;;2.62;100.00
12879;BME280;20617;49.476;10.986;2023-01-31T04:35:39;99077.13;;;2.68;100.00
12879;BME280;20617;49.476;10.986;2023-01-31T04:37:44;99073.72;;;2.72;100.00
12879;BME280;20617;49.476;10.986;2023-01-31T04:39:51;99072.00;;;2.71;100.00
12879;BME280;20617;49.476;10.986;2023-01-31T04:41:56;99060.88;;;2.74;100.00
12879;BME280;20617;49.476;10.986;2023-01-31T04:44:01;99077.13;;;2.72;100.00
12879;BME280;20617;49.476;10.986;2023-01-31T04:46:06;99081.44;;;2.78;100.00
12879;BME280;20617;49.476;10.986;2023-01-31T04:48:11;99075.44;;;2.79;100.00
12879;BME280;20617;49.476;10.986;2023-01-31T04:50:15;99068.59;;;2.80;100.00
12879;BME280;20617;49.476;10.986;2023-01-31T04:52:21;99070.25;;;2.70;100.00
12879;BME280;20617;49.476;10.986;2023-01-31T04:54:26;99063.41;;;2.69;100.00
12879;BME280;20617;49.476;10.986;2023-01-31T04:56:34;99066.00;;;2.69;100.00
12879;BME280;20617;49.476;10.986;2023-01-31T04:58:39;99066.84;;;2.62;100.00
12879;BME280;20617;49.476;10.986;2023-01-31T05:00:44;99062.53;;;2.67;100.00
12879;BME280;20617;49.476;10.986;2023-01-31T05:02:49;99060.84;;;2.69;100.00
12879;BME280;20617;49.476;10.986;2023-01-31T05:04:55;99055.69;;;2.70;100.00
12879;BME280;20617;49.476;10.986;2023-01-31T05:07:00;99058.28;;;2.69;100.00
12879;BME280;20617;49.476;10.986;2023-01-31T05:09:05;99048.00;;;2.69;100.00
12879;BME280;20617;49.476;10.986;2023-01-31T05:11:10;99050.53;;;2.64;100.00
12879;BME280;20617;49.476;10.986;2023-01-31T05:13:18;99053.97;;;2.66;100.00
12879;BME280;20617;49.476;10.986;2023-01-31T05:15:22;99047.13;;;2.65;100.00
12879;BME280;20617;49.476;10.986;2023-01-31T05:17:27;99057.44;;;2.68;100.00
12879;BME280;20617;49.476;10.986;2023-01-31T05:19:33;99054.84;;;2.73;100.00
12879;BME280;20617;49.476;10.986;2023-01-31T05:21:38;99049.72;;;2.78;100.00
12879;BME280;20617;49.476;10.986;2023-01-31T05:23:55;99045.44;;;2.81;100.00
12879;BME280;20617;49.476;10.986;2023-01-31T05:26:00;99041.16;;;2.79;100.00
12879;BME280;20617;49.476;10.986;2023-01-31T05:28:06;99029.16;;;2.79;100.00
12879;BME280;20617;49.476;10.986;2023-01-31T05:30:14;99036.03;;;2.83;100.00
12879;BME280;20617;49.476;10.986;2023-01-31T05:32:19;99037.72;;;2.81;100.00
12879;BME280;20617;49.476;10.986;2023-01-31T05:34:25;99037.72;;;2.75;100.00
12879;BME280;20617;49.476;10.986;2023-01-31T05:36:33;99033.44;;;2.77;100.00
12879;BME280;20617;49.476;10.986;2023-01-31T05:38:38;99031.72;;;2.73;100.00
12879;BME280;20617;49.476;10.986;2023-01-31T05:40:43;99030.03;;;2.74;100.00
12879;BME280;20617;49.476;10.986;2023-01-31T05:42:53;99036.00;;;2.65;100.00
12879;BME280;20617;49.476;10.986;2023-01-31T05:44:58;99026.56;;;2.62;100.00
12879;BME280;20617;49.476;10.986;2023-01-31T05:47:06;99030.88;;;2.65;100.00
12879;BME280;20617;49.476;10.986;2023-01-31T05:49:11;99036.84;;;2.64;100.00
12879;BME280;20617;49.476;10.986;2023-01-31T05:51:16;99041.13;;;2.69;100.00
12879;BME280;20617;49.476;10.986;2023-01-31T05:53:21;99045.44;;;2.74;100.00
12879;BME280;20617;49.476;10.986;2023-01-31T05:55:26;99042.84;;;2.72;100.00
12879;BME280;20617;49.476;10.986;2023-01-31T05:57:31;99057.41;;;2.73;100.00
12879;BME280;20617;49.476;10.986;2023-01-31T05:59:36;99064.28;;;2.71;100.00
12879;BME280;20617;49.476;10.986;2023-01-31T06:01:41;99059.16;;;2.80;100.00
12879;BME280;20617;49.476;10.986;2023-01-31T06:03:49;99066.00;;;2.78;100.00
12879;BME280;20617;49.476;10.986;2023-01-31T06:05:54;99067.72;;;2.78;100.00
12879;BME280;20617;49.476;10.986;2023-01-31T06:07:59;99050.59;;;2.83;100.00
12879;BME280;20617;49.476;10.986;2023-01-31T06:10:05;99059.16;;;2.83;100.00
12879;BME280;20617;49.476;10.986;2023-01-31T06:12:12;99057.44;;;2.87;100.00
12879;BME280;20617;49.476;10.986;2023-01-31T06:14:17;99053.16;;;2.97;100.00
12879;BME280;20617;49.476;10.986;2023-01-31T06:16:22;99066.91;;;2.91;100.00
12879;BME280;20617;49.476;10.986;2023-01-31T06:18:28;99066.91;;;2.92;100.00
12879;BME280;20617;49.476;10.986;2023-01-31T06:20:36;99060.91;;;3.04;100.00
12879;BME280;20617;49.476;10.986;2023-01-31T06:22:41;99058.34;;;3.15;100.00
12879;BME280;20617;49.476;10.986;2023-01-31T06:24:46;99053.19;;;3.13;100.00
12879;BME280;20617;49.476;10.986;2023-01-31T06:26:51;99055.78;;;3.12;100.00
12879;BME280;20617;49.476;10.986;2023-01-31T06:28:56;99058.34;;;3.16;100.00
12879;BME280;20617;49.476;10.986;2023-01-31T06:31:05;99064.31;;;3.05;100.00
12879;BME280;20617;49.476;10.986;2023-01-31T06:33:11;99060.91;;;3.15;100.00
12879;BME280;20617;49.476;10.986;2023-01-31T06:35:16;99059.19;;;3.14;100.00
12879;BME280;20617;49.476;10.986;2023-01-31T06:37:27;99062.66;;;3.11;100.00
12879;BME280;20617;49.476;10.986;2023-01-31T06:39:32;99060.06;;;3.07;100.00
12879;BME280;20617;49.476;10.986;2023-01-31T06:41:37;99066.91;;;3.09;100.00
12879;BME280;20617;49.476;10.986;2023-01-31T06:43:42;99061.75;;;3.05;100.00
12879;BME280;20617;49.476;10.986;2023-01-31T06:45:47;99069.47;;;2.99;100.00
12879;BME280;20617;49.476;10.986;2023-01-31T06:47:52;99068.63;;;3.00;100.00
12879;BME280;20617;49.476;10.986;2023-01-31T06:49:57;99064.34;;;3.00;100.00
12879;BME280;20617;49.476;10.986;2023-01-31T06:52:02;99071.19;;;3.01;100.00
12879;BME280;20617;49.476;10.986;2023-01-31T06:54:10;99080.63;;;3.07;100.00
12879;BME280;20617;49.476;10.986;2023-01-31T06:56:15;99066.91;;;3.02;100.00
12879;BME280;20617;49.476;10.986;2023-01-31T06:58:20;99068.63;;;3.01;100.00
12879;BME280;20617;49.476;10.986;2023-01-31T07:00:25;99068.63;;;3.06;100.00
12879;BME280;20617;49.476;10.986;2023-01-31T07:02:31;99066.06;;;3.13;100.00
12879;BME280;20617;49.476;10.986;2023-01-31T07:04:36;99054.94;;;3.21;100.00
12879;BME280;20617;49.476;10.986;2023-01-31T07:06:41;99064.34;;;3.18;100.00
12879;BME280;20617;49.476;10.986;2023-01-31T07:08:46;99056.63;;;3.22;100.00
12879;BME280;20617;49.476;10.986;2023-01-31T07:10:54;99053.19;;;3.23;100.00
12879;BME280;20617;49.476;10.986;2023-01-31T07:12:59;99062.63;;;3.28;100.00
12879;BME280;20617;49.476;10.986;2023-01-31T07:15:04;99061.78;;;3.22;100.00
12879;BME280;20617;49.476;10.986;2023-01-31T07:17:09;99066.06;;;3.23;100.00
12879;BME280;20617;49.476;10.986;2023-01-31T07:19:14;99061.78;;;3.25;100.00
12879;BME280;20617;49.476;10.986;2023-01-31T07:21:19;99066.94;;;3.32;100.00
12879;BME280;20617;49.476;10.986;2023-01-31T07:23:24;99064.34;;;3.43;100.00
12879;BME280;20617;49.476;10.986;2023-01-31T07:25:29;99056.63;;;3.55;100.00
12879;BME280;20617;49.476;10.986;2023-01-31T07:27:37;99054.03;;;3.66;100.00
12879;BME280;20617;49.476;10.986;2023-01-31T07:29:42;99063.47;;;3.62;100.00
12879;BME280;20617;49.476;10.986;2023-01-31T07:31:47;99060.91;;;3.53;100.00
12879;BME280;20617;49.476;10.986;2023-01-31T07:33:52;99053.19;;;3.58;100.00
12879;BME280;20617;49.476;10.986;2023-01-31T07:35:57;99053.19;;;3.61;100.00
12879;BME280;20617;49.476;10.986;2023-01-31T07:38:02;99060.91;;;3.52;100.00
12879;BME280;20617;49.476;10.986;2023-01-31T07:40:11;99063.47;;;3.49;100.00
12879;BME280;20617;49.476;10.986;2023-01-31T07:42:16;99059.19;;;3.42;100.00
12879;BME280;20617;49.476;10.986;2023-01-31T07:44:25;99066.06;;;3.33;100.00
12879;BME280;20617;49.476;10.986;2023-01-31T07:46:30;99065.22;;;3.30;100.00
12879;BME280;20617;49.476;10.986;2023-01-31T07:48:35;99068.63;;;3.39;100.00
12879;BME280;20617;49.476;10.986;2023-01-31T07:50:40;99070.34;;;3.56;100.00
12879;BME280;20617;49.476;10.986;2023-01-31T07:52:45;99065.19;;;3.62;100.00
12879;BME280;20617;49.476;10.986;2023-01-31T07:54:52;99068.63;;;3.66;100.00
12879;BME280;20617;49.476;10.986;2023-01-31T07:56:57;99080.63;;;3.62;100.00
12879;BME280;20617;49.476;10.986;2023-01-31T07:59:02;99091.78;;;3.59;100.00
12879;BME280;20617;49.476;10.986;2023-01-31T08:01:13;99087.50;;;3.60;100.00
12879;BME280;20617;49.476;10.986;2023-01-31T08:03:32;99085.81;;;3.67;100.00
12879;BME280;20617;49.476;10.986;2023-01-31T08:05:38;99081.47;;;3.84;100.00
12879;BME280;20617;49.476;10.986;2023-01-31T08:07:43;99091.75;;;3.92;100.00
12879;BME280;20617;49.476;10.986;2023-01-31T08:10:09;99093.47;;;3.86;100.00
12879;BME280;20617;49.476;10.986;2023-01-31T08:12:18;99090.03;;;4.00;100.00
12879;BME280;20617;49.476;10.986;2023-01-31T08:14:23;99084.03;;;3.90;100.00
12879;BME280;20617;49.476;10.986;2023-01-31T08:16:31;99084.91;;;3.81;100.00
12879;BME280;20617;49.476;10.986;2023-01-31T08:18:37;99077.19;;;3.88;100.00
12879;BME280;20617;49.476;10.986;2023-01-31T08:20:42;99074.63;;;3.78;100.00
12879;BME280;20617;49.476;10.986;2023-01-31T08:22:47;99084.06;;;3.67;100.00
12879;BME280;20617;49.476;10.986;2023-01-31T08:24:52;99078.94;;;3.67;100.00
12879;BME280;20617;49.476;10.986;2023-01-31T08:26:57;99087.53;;;3.52;100.00
12879;BME280;20617;49.476;10.986;2023-01-31T08:29:03;99078.09;;;3.40;100.00
12879;BME280;20617;49.476;10.986;2023-01-31T08:31:11;99090.09;;;3.35;100.00
12879;BME280;20617;49.476;10.986;2023-01-31T08:33:19;99096.09;;;3.21;100.00
12879;BME280;20617;49.476;10.986;2023-01-31T08:35:25;99088.38;;;3.27;100.00
12879;BME280;20617;49.476;10.986;2023-01-31T08:37:30;99098.66;;;3.28;100.00
12879;BME280;20617;49.476;10.986;2023-01-31T08:39:35;99099.50;;;3.30;100.00
12879;BME280;20617;49.476;10.986;2023-01-31T08:41:40;99102.94;;;3.40;100.00
12879;BME280;20617;49.476;10.986;2023-01-31T08:43:45;99096.97;;;3.41;100.00
12879;BME280;20617;49.476;10.986;2023-01-31T08:45:59;99097.81;;;3.45;100.00
12879;BME280;20617;49.476;10.986;2023-01-31T08:48:04;99088.38;;;3.39;100.00
12879;BME280;20617;49.476;10.986;2023-01-31T08:50:13;99091.81;;;3.44;100.00
12879;BME280;20617;49.476;10.986;2023-01-31T08:52:28;99087.50;;;3.48;100.00
12879;BME280;20617;49.476;10.986;2023-01-31T08:54:36;99086.63;;;3.52;100.00
12879;BME280;20617;49.476;10.986;2023-01-31T08:56:41;99089.22;;;3.64;100.00
12879;BME280;20617;49.476;10.986;2023-01-31T08:58:46;99084.09;;;3.61;100.00
12879;BME280;20617;49.476;10.986;2023-01-31T09:00:51;99079.78;;;3.55;100.00
12879;BME280;20617;49.476;10.986;2023-01-31T09:02:57;99080.66;;;3.56;100.00
12879;BME280;20617;49.476;10.986;2023-01-31T09:05:03;99090.06;;;3.66;100.00
12879;BME280;20617;49.476;10.986;2023-01-31T09:07:11;99083.22;;;3.59;100.00
12879;BME280;20617;49.476;10.986;2023-01-31T09:09:16;99090.94;;;3.65;100.00
12879;BME280;20617;49.476;10.986;2023-01-31T09:11:21;99088.38;;;3.53;100.00
12879;BME280;20617;49.476;10.986;2023-01-31T09:13:27;99080.63;;;3.68;100.00
12879;BME280;20617;49.476;10.986;2023-01-31T09:15:33;99090.91;;;3.63;100.00
12879;BME280;20617;49.476;10.986;2023-01-31T09:17:38;99078.91;;;3.73;100.00
12879;BME280;20617;49.476;10.986;2023-01-31T09:19:43;99090.09;;;3.61;100.00
12879;BME280;20617;49.476;10.986;2023-01-31T09:21:49;99081.50;;;3.58;100.00
12879;BME280;20617;49.476;10.986;2023-01-31T09:23:58;99084.94;;;3.54;100.00
12879;BME280;20617;49.476;10.986;2023-01-31T09:26:03;99085.78;;;3.65;100.00
12879;BME280;20617;49.476;10.986;2023-01-31T09:28:09;99082.34;;;3.78;100.00
12879;BME280;20617;49.476;10.986;2023-01-31T09:30:14;99084.88;;;3.89;100.00
12879;BME280;20617;49.476;10.986;2023-01-31T09:32:19;99084.03;;;3.81;100.00
12879;BME280;20617;49.476;10.986;2023-01-31T09:34:24;99082.31;;;3.86;100.00
12879;BME280;20617;49.476;10.986;2023-01-31T09:36:29;99080.59;;;3.94;100.00
12879;BME280;20617;49.476;10.986;2023-01-31T09:38:35;99077.13;;;4.11;100.00
12879;BME280;20617;49.476;10.986;2023-01-31T09:40:43;99072.75;;;4.29;100.00
12879;BME280;20617;49.476;10.986;2023-01-31T09:42:49;99068.44;;;4.35;100.00
12879;BME280;20617;49.476;10.986;2023-01-31T09:44:58;99070.97;;;4.39;100.00
12879;BME280;20617;49.476;10.986;2023-01-31T09:47:09;99064.03;;;4.57;100.00
12879;BME280;20617;49.476;10.986;2023-01-31T09:49:21;99070.94;;;4.54;100.00
12879;BME280;20617;49.476;10.986;2023-01-31T09:51:27;99072.56;;;4.71;100.00
12879;BME280;20617;49.476;10.986;2023-01-31T09:53:36;99069.97;;;4.77;100.00
12879;BME280;20617;49.476;10.986;2023-01-31T09:55:48;99069.06;;;4.80;100.00
12879;BME280;20617;49.476;10.986;2023-01-31T09:58:00;99076.03;;;4.62;100.00
12879;BME280;20617;49.476;10.986;2023-01-31T10:00:15;99068.28;;;4.67;100.00
12879;BME280;20617;49.476;10.986;2023-01-31T10:02:36;99068.22;;;4.76;100.00
12879;BME280;20617;49.476;10.986;2023-01-31T10:04:58;99073.41;;;4.74;100.00
12879;BME280;20617;49.476;10.986;2023-01-31T10:07:11;99062.22;;;4.80;100.00
12879;BME280;20617;49.476;10.986;2023-01-31T10:09:24;99058.69;;;4.86;100.00
12879;BME280;20617;49.476;10.986;2023-01-31T10:11:37;99055.22;;;4.96;100.00
12879;BME280;20617;49.476;10.986;2023-01-31T10:13:46;99062.94;;;5.01;100.00
12879;BME280;20617;49.476;10.986;2023-01-31T10:15:56;99058.66;;;4.95;100.00
12879;BME280;20617;49.476;10.986;2023-01-31T10:18:08;99045.75;;;4.98;100.00
12879;BME280;20617;49.476;10.986;2023-01-31T10:20:19;99037.13;;;4.99;100.00
12879;BME280;20617;49.476;10.986;2023-01-31T10:22:32;99044.84;;;5.04;100.00
12879;BME280;20617;49.476;10.986;2023-01-31T10:24:43;99039.00;;;4.79;100.00
12879;BME280;20617;49.476;10.986;2023-01-31T10:26:54;99040.69;;;4.84;100.00
12879;BME280;20617;49.476;10.986;2023-01-31T10:29:10;99022.66;;;4.76;100.00
12879;BME280;20617;49.476;10.986;2023-01-31T10:31:25;99019.97;;;4.93;100.00
12879;BME280;20617;49.476;10.986;2023-01-31T10:33:38;99009.69;;;4.92;100.00
12879;BME280;20617;49.476;10.986;2023-01-31T10:35:47;99007.91;;;4.94;100.00
12879;BME280;20617;49.476;10.986;2023-01-31T10:37:59;99012.19;;;4.99;100.00
12879;BME280;20617;49.476;10.986;2023-01-31T10:40:13;99017.47;;;4.84;100.00
12879;BME280;20617;49.476;10.986;2023-01-31T10:42:28;99008.03;;;4.83;100.00
12879;BME280;20617;49.476;10.986;2023-01-31T10:44:43;99012.25;;;4.90;100.00
12879;BME280;20617;49.476;10.986;2023-01-31T10:46:51;99012.38;;;4.73;100.00
12879;BME280;20617;49.476;10.986;2023-01-31T10:49:00;99008.94;;;4.74;100.00
12879;BME280;20617;49.476;10.986;2023-01-31T10:51:15;98995.88;;;4.96;100.00
12879;BME280;20617;49.476;10.986;2023-01-31T10:56:04;98982.78;;;5.17;100.00
12879;BME280;20617;49.476;10.986;2023-01-31T10:58:13;98986.94;;;5.35;100.00
12879;BME280;20617;49.476;10.986;2023-01-31T11:00:25;98982.78;;;5.19;100.00
12879;BME280;20617;49.476;10.986;2023-01-31T11:02:31;98988.00;;;5.11;100.00
12879;BME280;20617;49.476;10.986;2023-01-31T11:04:40;98994.72;;;5.29;100.00
12879;BME280;20617;49.476;10.986;2023-01-31T11:06:46;98982.66;;;5.33;100.00
12879;BME280;20617;49.476;10.986;2023-01-31T11:08:54;98987.91;;;5.20;100.00
12879;BME280;20617;49.476;10.986;2023-01-31T11:11:06;98981.25;;;4.96;100.00
12879;BME280;20617;49.476;10.986;2023-01-31T11:13:17;98985.47;;;5.05;100.00
12879;BME280;20617;49.476;10.986;2023-01-31T11:15:25;98976.16;;;4.87;100.00